createdAt,value
2019-06-10T00:00:13.743Z,20.97
2019-06-10T00:02:35.364Z,20.98
2019-06-10T00:05:07.178Z,20.94
2019-06-10T00:07:35.704Z,20.89
2019-06-10T00:10:07.451Z,20.88
2019-06-10T00:12:36.134Z,20.75
2019-06-10T00:15:07.803Z,20.63
2019-06-10T00:17:52.338Z,20.59
2019-06-10T00:20:08.287Z,20.53
2019-06-10T00:22:36.817Z,20.38
2019-06-10T00:25:08.583Z,20.26
2019-06-10T00:27:37.022Z,20.20
2019-06-10T00:30:12.121Z,20.30
2019-06-10T00:32:41.213Z,20.35
2019-06-10T00:35:12.245Z,20.32
2019-06-10T00:37:41.880Z,20.14
2019-06-10T00:40:14.139Z,20.00
2019-06-10T00:42:41.822Z,20.05
2019-06-10T00:45:17.497Z,20.08
2019-06-10T00:47:41.417Z,20.17
2019-06-10T00:50:14.533Z,20.13
2019-06-10T00:52:42.198Z,19.95
2019-06-10T00:55:12.548Z,19.90
2019-06-10T00:57:41.823Z,19.90
2019-06-10T01:00:23.130Z,19.93
2019-06-10T01:02:41.145Z,20.07
2019-06-10T01:05:12.059Z,20.21
2019-06-10T01:07:41.424Z,20.24
2019-06-10T01:10:13.141Z,20.28
2019-06-10T01:12:40.789Z,20.29
2019-06-10T01:15:12.108Z,20.12
2019-06-10T01:17:41.716Z,19.85
2019-06-10T01:20:14.410Z,19.71
2019-06-10T01:22:41.624Z,19.73
2019-06-10T01:25:12.352Z,19.69
2019-06-10T01:27:40.938Z,19.63
2019-06-10T01:30:18.707Z,19.66
2019-06-10T01:32:41.623Z,19.80
2019-06-10T01:35:11.498Z,19.94
2019-06-10T01:37:41.380Z,20.00
2019-06-10T01:40:13.076Z,19.96
2019-06-10T01:42:41.243Z,19.92
2019-06-10T01:45:11.508Z,20.00
2019-06-10T01:47:41.679Z,20.07
2019-06-10T01:50:12.490Z,20.03
2019-06-10T01:52:41.213Z,19.99
2019-06-10T01:55:12.354Z,19.88
2019-06-10T01:57:41.342Z,19.85
2019-06-10T02:00:15.911Z,19.91
2019-06-10T02:02:44.634Z,19.92
2019-06-10T02:05:14.580Z,19.90
2019-06-10T02:07:42.205Z,19.93
2019-06-10T02:10:13.746Z,19.95
2019-06-10T02:12:41.685Z,20.00
2019-06-10T02:15:13.508Z,20.03
2019-06-10T02:17:41.690Z,20.10
2019-06-10T02:20:12.960Z,20.12
2019-06-10T02:22:41.180Z,20.15
2019-06-10T02:25:10.966Z,20.14
2019-06-10T02:27:41.520Z,20.18
2019-06-10T02:30:18.898Z,20.16
2019-06-10T02:32:42.869Z,20.04
2019-06-10T02:35:18.065Z,19.94
2019-06-10T02:37:44.456Z,19.85
2019-06-10T02:40:16.629Z,19.68
2019-06-10T02:42:44.338Z,19.57
2019-06-10T02:45:17.348Z,19.50
2019-06-10T02:47:44.304Z,19.46
2019-06-10T02:50:18.858Z,19.44
2019-06-10T02:52:44.794Z,19.54
2019-06-10T02:55:15.650Z,19.60
2019-06-10T02:57:44.785Z,19.63
2019-06-10T03:00:20.920Z,19.64
2019-06-10T03:02:45.361Z,19.63
2019-06-10T03:05:17.564Z,19.63
2019-06-10T03:07:45.716Z,19.58
2019-06-10T03:10:16.375Z,19.54
2019-06-10T03:12:44.892Z,19.48
2019-06-10T03:15:13.356Z,19.41
2019-06-10T03:17:42.909Z,19.32
2019-06-10T03:20:12.368Z,19.24
2019-06-10T03:22:42.270Z,19.14
2019-06-10T03:25:12.976Z,19.01
2019-06-10T03:27:42.464Z,18.88
2019-06-10T03:30:17.115Z,18.78
2019-06-10T03:32:46.633Z,18.76
2019-06-10T03:35:13.227Z,18.75
2019-06-10T03:37:42.418Z,18.77
2019-06-10T03:40:13.063Z,18.80
2019-06-10T03:42:42.756Z,18.89
2019-06-10T03:45:12.594Z,18.93
2019-06-10T03:47:42.691Z,18.93
2019-06-10T03:50:13.401Z,18.87
2019-06-10T03:52:43.146Z,18.86
2019-06-10T03:55:12.416Z,18.89
2019-06-10T03:57:42.332Z,19.00
2019-06-10T04:00:13.918Z,19.10
2019-06-10T04:02:43.078Z,19.17
2019-06-10T04:05:13.249Z,19.24
2019-06-10T04:07:42.705Z,19.27
2019-06-10T04:10:12.586Z,19.37
2019-06-10T04:12:43.281Z,19.46
2019-06-10T04:15:12.389Z,19.42
2019-06-10T04:17:42.846Z,19.46
2019-06-10T04:20:15.281Z,19.47
2019-06-10T04:22:41.697Z,19.46
2019-06-10T04:25:12.120Z,19.44
2019-06-10T04:27:42.416Z,19.48
2019-06-10T04:30:12.801Z,19.53
2019-06-10T04:32:42.926Z,19.56
2019-06-10T04:35:12.694Z,19.62
2019-06-10T04:37:42.818Z,19.63
2019-06-10T04:40:13.390Z,19.70
2019-06-10T04:42:43.529Z,19.73
2019-06-10T04:45:12.352Z,19.81
2019-06-10T04:47:43.039Z,19.88
2019-06-10T04:50:24.090Z,19.94
2019-06-10T04:52:43.073Z,19.99
2019-06-10T04:55:12.780Z,20.00
2019-06-10T04:57:43.079Z,19.98
2019-06-10T05:00:14.579Z,19.90
2019-06-10T05:02:43.024Z,19.84
2019-06-10T05:05:13.122Z,19.86
2019-06-10T05:07:42.821Z,19.88
2019-06-10T05:10:12.409Z,19.91
2019-06-10T05:12:43.216Z,19.94
2019-06-10T05:15:12.528Z,19.92
2019-06-10T05:17:43.734Z,19.93
2019-06-10T05:20:12.598Z,19.96
2019-06-10T05:22:42.439Z,19.96
2019-06-10T05:25:12.866Z,19.94
2019-06-10T05:27:42.984Z,19.93
2019-06-10T05:30:12.370Z,19.92
2019-06-10T05:32:43.004Z,19.91
2019-06-10T05:35:12.371Z,19.88
2019-06-10T05:37:42.313Z,19.86
2019-06-10T05:40:12.795Z,19.89
2019-06-10T05:42:42.600Z,19.94
2019-06-10T05:45:12.303Z,19.91
2019-06-10T05:47:42.747Z,19.98
2019-06-10T05:50:12.899Z,20.03
2019-06-10T05:52:42.684Z,20.09
2019-06-10T05:55:12.134Z,20.16
2019-06-10T05:57:42.878Z,20.17
2019-06-10T06:00:14.799Z,20.18
2019-06-10T06:02:43.287Z,20.19
2019-06-10T06:05:12.839Z,20.18
2019-06-10T06:07:42.353Z,20.22
2019-06-10T06:10:13.019Z,20.25
2019-06-10T06:12:42.514Z,20.32
2019-06-10T06:15:12.901Z,20.37
2019-06-10T06:17:43.164Z,20.46
2019-06-10T06:20:13.284Z,20.53
2019-06-10T06:22:42.827Z,20.58
2019-06-10T06:25:15.304Z,20.61
2019-06-10T06:27:42.622Z,20.67
2019-06-10T06:30:18.229Z,20.71
2019-06-10T06:32:43.622Z,20.78
2019-06-10T06:35:12.673Z,20.81
2019-06-10T06:37:42.837Z,20.84
2019-06-10T06:40:13.261Z,20.84
2019-06-10T06:42:43.286Z,20.89
2019-06-10T06:45:12.719Z,20.94
2019-06-10T06:47:43.529Z,20.99
2019-06-10T06:50:13.062Z,21.06
2019-06-10T06:53:15.393Z,21.10
2019-06-10T06:55:12.794Z,21.12
2019-06-10T06:57:43.316Z,21.17
2019-06-10T07:00:35.221Z,21.21
2019-06-10T07:02:43.599Z,21.26
2019-06-10T07:05:12.661Z,21.32
2019-06-10T07:07:43.312Z,21.37
2019-06-10T07:10:12.273Z,21.44
2019-06-10T07:12:43.840Z,21.49
2019-06-10T07:15:13.036Z,21.53
2019-06-10T07:17:45.125Z,21.54
2019-06-10T07:20:12.647Z,21.61
2019-06-10T07:22:42.736Z,21.70
2019-06-10T07:25:12.424Z,21.74
2019-06-10T07:27:45.086Z,21.82
2019-06-10T07:30:14.716Z,21.86
2019-06-10T07:32:45.370Z,21.82
2019-06-10T07:35:13.016Z,21.82
2019-06-10T07:37:43.964Z,21.87
2019-06-10T07:40:13.012Z,21.94
2019-06-10T07:42:44.113Z,21.90
2019-06-10T07:45:13.066Z,21.86
2019-06-10T07:47:43.775Z,21.91
2019-06-10T07:50:12.332Z,22.05
2019-06-10T07:52:46.057Z,22.15
2019-06-10T07:55:12.871Z,22.20
2019-06-10T07:57:43.664Z,22.23
2019-06-10T08:00:13.798Z,22.23
2019-06-10T08:02:44.050Z,22.31
2019-06-10T08:05:13.035Z,22.36
2019-06-10T08:07:43.805Z,22.37
2019-06-10T08:10:13.433Z,22.46
2019-06-10T08:12:44.785Z,22.50
2019-06-10T08:15:12.615Z,22.54
2019-06-10T08:17:42.888Z,22.63
2019-06-10T08:20:13.443Z,22.80
2019-06-10T08:22:50.804Z,22.97
2019-06-10T08:25:12.499Z,23.04
2019-06-10T08:27:44.988Z,23.11
2019-06-10T08:30:32.929Z,23.16
2019-06-10T08:33:03.394Z,23.14
2019-06-10T08:35:41.481Z,23.19
2019-06-10T08:38:02.463Z,23.32
2019-06-10T08:40:32.591Z,23.45
2019-06-10T08:43:04.032Z,23.57
2019-06-10T08:45:33.302Z,23.56
2019-06-10T08:48:02.696Z,23.56
2019-06-10T08:50:33.663Z,23.71
2019-06-10T08:53:13.988Z,23.84
2019-06-10T08:55:33.480Z,23.97
2019-06-10T08:58:02.910Z,24.12
2019-06-10T09:00:33.726Z,24.30
2019-06-10T09:03:04.089Z,24.44
2019-06-10T09:05:32.838Z,24.45
2019-06-10T09:08:02.786Z,24.44
2019-06-10T09:10:33.934Z,24.44
2019-06-10T09:13:02.750Z,24.46
2019-06-10T09:15:32.479Z,24.41
2019-06-10T09:18:02.659Z,24.38
2019-06-10T09:20:33.188Z,24.43
2019-06-10T09:23:18.185Z,24.52
2019-06-10T09:25:33.350Z,24.61
2019-06-10T09:28:02.461Z,24.69
2019-06-10T09:30:33.343Z,24.80
2019-06-10T09:33:04.164Z,24.85
2019-06-10T09:35:32.319Z,24.88
2019-06-10T09:38:03.509Z,24.94
2019-06-10T09:41:00.318Z,25.09
2019-06-10T09:43:23.319Z,25.22
2019-06-10T09:45:56.246Z,25.30
2019-06-10T09:48:24.034Z,25.40
2019-06-10T09:50:57.852Z,25.55
2019-06-10T09:53:33.366Z,25.72
2019-06-10T09:55:55.641Z,25.89
2019-06-10T09:58:24.192Z,26.04
2019-06-10T10:00:57.851Z,26.16
2019-06-10T10:03:28.915Z,26.25
2019-06-10T10:06:09.832Z,26.32
2019-06-10T10:08:27.517Z,26.34
2019-06-10T10:10:58.754Z,26.33
2019-06-10T10:13:26.704Z,26.35
2019-06-10T10:15:55.302Z,26.39
2019-06-10T10:18:23.865Z,26.45
2019-06-10T10:20:58.440Z,26.52
2019-06-10T10:23:22.778Z,26.58
2019-06-10T10:25:56.372Z,26.60
2019-06-10T10:28:25.009Z,26.57
2019-06-10T10:30:57.074Z,26.61
2019-06-10T10:33:25.382Z,26.72
2019-06-10T10:35:52.701Z,26.80
2019-06-10T10:38:22.917Z,26.79
2019-06-10T10:40:56.544Z,26.77
2019-06-10T10:43:31.901Z,26.79
2019-06-10T10:45:57.477Z,26.94
2019-06-10T10:48:22.604Z,27.03
2019-06-10T10:50:55.492Z,27.07
2019-06-10T10:53:23.694Z,27.14
2019-06-10T10:55:51.992Z,27.17
2019-06-10T10:58:22.912Z,27.21
2019-06-10T11:00:54.516Z,27.25
2019-06-10T11:03:22.864Z,27.29
2019-06-10T11:05:57.237Z,27.32
2019-06-10T11:08:22.778Z,27.34
2019-06-10T11:10:57.362Z,27.39
2019-06-10T11:13:26.165Z,27.39
2019-06-10T11:15:56.456Z,27.36
2019-06-10T11:18:24.814Z,27.32
2019-06-10T11:20:54.081Z,27.37
2019-06-10T11:23:22.925Z,27.34
2019-06-10T11:25:56.566Z,27.34
2019-06-10T11:28:22.834Z,27.32
2019-06-10T11:30:56.362Z,27.31
2019-06-10T11:33:22.772Z,27.41
2019-06-10T11:35:53.603Z,27.58
2019-06-10T11:38:23.484Z,27.58
2019-06-10T11:40:55.968Z,27.58
2019-06-10T11:43:22.646Z,27.58
2019-06-10T11:45:58.862Z,27.61
2019-06-10T11:48:23.648Z,27.58
2019-06-10T11:50:54.709Z,27.56
2019-06-10T11:53:22.910Z,27.54
2019-06-10T11:55:51.735Z,27.58
2019-06-10T11:58:22.287Z,27.64
2019-06-10T12:00:54.363Z,27.74
2019-06-10T12:03:22.986Z,27.74
2019-06-10T12:05:53.751Z,27.86
2019-06-10T12:08:23.405Z,27.91
2019-06-10T12:10:54.794Z,27.91
2019-06-10T12:13:22.616Z,28.00
2019-06-10T12:16:49.415Z,27.97
2019-06-10T12:18:22.888Z,27.97
2019-06-10T12:20:55.625Z,28.00
2019-06-10T12:23:22.176Z,28.04
2019-06-10T12:25:54.572Z,28.00
2019-06-10T12:28:20.981Z,27.96
2019-06-10T12:30:51.224Z,27.97
2019-06-10T12:33:24.869Z,27.94
2019-06-10T12:35:51.806Z,27.98
2019-06-10T12:38:22.501Z,28.04
2019-06-10T12:40:51.683Z,28.13
2019-06-10T12:43:22.936Z,28.17
2019-06-10T12:45:53.911Z,28.26
2019-06-10T12:48:22.181Z,28.28
2019-06-10T12:50:53.260Z,28.28
2019-06-10T12:53:22.915Z,28.28
2019-06-10T12:55:53.640Z,28.28
2019-06-10T12:58:22.587Z,28.31
2019-06-10T13:00:53.797Z,28.28
2019-06-10T13:03:23.788Z,28.31
2019-06-10T13:05:53.333Z,28.47
2019-06-10T13:08:23.984Z,28.70
2019-06-10T13:10:53.263Z,28.96
2019-06-10T13:13:22.737Z,29.16
2019-06-10T13:15:53.270Z,29.23
2019-06-10T13:18:23.871Z,29.27
2019-06-10T13:20:53.780Z,29.33
2019-06-10T13:23:28.487Z,29.35
2019-06-10T13:25:58.106Z,29.35
2019-06-10T13:28:22.493Z,29.24
2019-06-10T13:30:54.013Z,29.15
2019-06-10T13:33:22.928Z,29.06
2019-06-10T13:35:53.566Z,29.01
2019-06-10T13:38:22.799Z,29.03
2019-06-10T13:40:53.282Z,29.08
2019-06-10T13:43:23.124Z,29.09
2019-06-10T13:45:53.301Z,29.12
2019-06-10T13:48:25.678Z,29.17
2019-06-10T13:50:52.898Z,29.21
2019-06-10T13:53:21.438Z,29.25
2019-06-10T13:55:56.928Z,29.29
2019-06-10T13:58:22.853Z,29.29
2019-06-10T14:00:53.342Z,29.28
2019-06-10T14:03:22.759Z,29.24
2019-06-10T14:05:57.589Z,29.20
2019-06-10T14:08:23.045Z,29.20
2019-06-10T14:10:53.666Z,29.11
2019-06-10T14:13:23.563Z,29.08
2019-06-10T14:15:53.251Z,29.11
2019-06-10T14:18:23.156Z,29.12
2019-06-10T14:20:53.282Z,29.11
2019-06-10T14:23:22.301Z,29.07
2019-06-10T14:25:52.637Z,29.03
2019-06-10T14:28:38.469Z,29.04
2019-06-10T14:30:53.696Z,29.05
2019-06-10T14:33:23.326Z,29.05
2019-06-10T14:35:53.336Z,29.17
2019-06-10T14:38:22.225Z,29.23
2019-06-10T14:40:52.632Z,29.29
2019-06-10T14:43:23.216Z,29.28
2019-06-10T14:45:53.411Z,29.29
2019-06-10T14:48:23.380Z,29.29
2019-06-10T14:50:51.900Z,29.29
2019-06-10T14:53:23.087Z,29.31
2019-06-10T14:55:52.891Z,29.32
2019-06-10T14:58:22.789Z,29.38
2019-06-10T15:00:54.362Z,29.43
2019-06-10T15:03:20.937Z,29.55
2019-06-10T15:05:49.344Z,29.73
2019-06-10T15:08:19.755Z,29.88
2019-06-10T15:10:48.293Z,29.95
2019-06-10T15:13:16.693Z,29.97
2019-06-10T15:15:46.434Z,30.00
2019-06-10T15:18:18.058Z,30.08
2019-06-10T15:20:45.167Z,30.17
2019-06-10T15:23:16.840Z,30.18
2019-06-10T15:25:52.577Z,30.27
2019-06-10T15:28:15.967Z,30.26
2019-06-10T15:30:43.954Z,30.32
2019-06-10T15:33:14.711Z,30.41
2019-06-10T15:35:42.941Z,30.53
2019-06-10T15:38:13.738Z,30.62
2019-06-10T15:40:43.303Z,30.70
2019-06-10T15:43:11.908Z,30.79
2019-06-10T15:45:40.382Z,30.85
2019-06-10T15:48:10.197Z,30.87
2019-06-10T15:50:38.642Z,30.89
2019-06-10T15:53:07.041Z,30.94
2019-06-10T15:56:05.855Z,30.93
2019-06-10T15:58:05.599Z,30.88
2019-06-10T16:00:34.314Z,30.75
2019-06-10T16:03:02.905Z,30.62
2019-06-10T16:05:32.188Z,30.41
2019-06-10T16:08:02.142Z,30.23
2019-06-10T16:10:32.712Z,30.09
2019-06-10T16:13:03.261Z,29.95
2019-06-10T16:15:33.110Z,29.86
2019-06-10T16:18:02.809Z,29.79
2019-06-10T16:20:32.343Z,29.69
2019-06-10T16:23:02.965Z,29.59
2019-06-10T16:25:31.089Z,29.49
2019-06-10T16:27:59.510Z,29.37
2019-06-10T16:30:27.887Z,28.82
2019-06-10T16:32:56.309Z,28.32
2019-06-10T16:35:26.795Z,28.01
2019-06-10T16:37:56.854Z,27.46
2019-06-10T16:40:27.072Z,26.78
2019-06-10T16:42:55.501Z,26.15
2019-06-10T16:45:29.124Z,24.78
2019-06-10T16:47:59.019Z,24.78
2019-06-10T16:50:27.577Z,23.95
2019-06-10T16:52:55.992Z,23.45
2019-06-10T16:55:25.765Z,23.28
2019-06-10T16:57:59.298Z,23.23
2019-06-10T17:00:26.358Z,23.21
2019-06-10T17:02:55.222Z,23.19
2019-06-10T17:05:27.042Z,23.19
2019-06-10T17:07:53.836Z,23.03
2019-06-10T17:10:24.053Z,22.76
2019-06-10T17:13:03.208Z,22.46
2019-06-10T17:15:31.339Z,22.25
2019-06-10T17:17:59.713Z,22.11
2019-06-10T17:20:29.658Z,22.01
2019-06-10T17:22:59.942Z,22.06
2019-06-10T17:25:29.612Z,22.09
2019-06-10T17:27:58.057Z,22.21
2019-06-10T17:30:27.243Z,22.30
2019-06-10T17:32:56.864Z,22.37
2019-06-10T17:35:26.224Z,22.43
2019-06-10T17:37:54.736Z,22.48
2019-06-10T17:40:24.919Z,22.49
2019-06-10T17:42:53.385Z,22.55
2019-06-10T17:45:25.753Z,22.60
2019-06-10T17:47:52.481Z,22.67
2019-06-10T17:50:22.274Z,22.74
2019-06-10T17:52:53.468Z,22.75
2019-06-10T17:55:25.708Z,22.59
2019-06-10T17:57:51.544Z,22.35
2019-06-10T18:00:20.320Z,22.27
2019-06-10T18:02:48.899Z,22.18
2019-06-10T18:05:17.558Z,22.09
2019-06-10T18:07:46.055Z,22.11
2019-06-10T18:10:15.400Z,22.09
2019-06-10T18:12:43.816Z,22.06
2019-06-10T18:15:12.726Z,22.00
2019-06-10T18:17:42.600Z,22.00
2019-06-10T18:20:13.674Z,21.95
2019-06-10T18:22:42.083Z,21.90
2019-06-10T18:25:12.346Z,21.90
2019-06-10T18:27:40.932Z,21.86
2019-06-10T18:30:14.152Z,21.85
2019-06-10T18:32:42.968Z,21.83
2019-06-10T18:35:11.492Z,21.88
2019-06-10T18:37:42.153Z,22.02
2019-06-10T18:40:14.471Z,22.19
2019-06-10T18:42:41.885Z,22.33
2019-06-10T18:45:14.985Z,22.36
2019-06-10T18:47:43.768Z,22.36
2019-06-10T18:50:14.156Z,22.37
2019-06-10T18:52:43.310Z,22.38
2019-06-10T18:55:12.481Z,22.46
2019-06-10T18:57:42.570Z,22.49
2019-06-10T19:00:14.670Z,22.47
2019-06-10T19:02:43.411Z,22.44
2019-06-10T19:05:13.274Z,22.41
2019-06-10T19:07:42.901Z,22.35
2019-06-10T19:10:12.514Z,22.31
2019-06-10T19:12:42.485Z,22.34
2019-06-10T19:15:12.155Z,22.37
2019-06-10T19:17:43.987Z,22.34
2019-06-10T19:20:12.993Z,22.27
2019-06-10T19:22:43.245Z,22.17
2019-06-10T19:25:12.833Z,22.09
2019-06-10T19:27:44.333Z,22.02
2019-06-10T19:30:12.453Z,21.93
2019-06-10T19:32:44.148Z,21.86
2019-06-10T19:35:13.088Z,21.86
2019-06-10T19:37:42.316Z,21.96
2019-06-10T19:40:12.436Z,22.03
2019-06-10T19:42:43.390Z,22.09
2019-06-10T19:45:12.656Z,22.12
2019-06-10T19:47:44.086Z,21.99
2019-06-10T19:50:12.948Z,21.85
2019-06-10T19:52:43.978Z,21.72
2019-06-10T19:55:13.228Z,21.57
2019-06-10T19:57:41.825Z,21.46
2019-06-10T20:00:12.617Z,21.38
2019-06-10T20:02:44.066Z,21.29
2019-06-10T20:05:12.479Z,21.27
2019-06-10T20:07:43.970Z,21.24
2019-06-10T20:10:13.256Z,21.14
2019-06-10T20:12:44.843Z,21.03
2019-06-10T20:15:23.276Z,20.98
2019-06-10T20:17:52.692Z,20.96
2019-06-10T20:20:22.644Z,20.95
2019-06-10T20:22:53.310Z,20.92
2019-06-10T20:25:22.418Z,20.89
2019-06-10T20:27:52.402Z,20.90
2019-06-10T20:30:28.172Z,20.91
2019-06-10T20:32:55.736Z,20.97
2019-06-10T20:35:23.251Z,20.94
2019-06-10T20:37:53.821Z,20.89
2019-06-10T20:40:24.197Z,20.86
2019-06-10T20:42:52.661Z,20.80
2019-06-10T20:45:23.165Z,20.86
2019-06-10T20:47:53.301Z,20.83
2019-06-10T20:50:22.239Z,20.77
2019-06-10T20:52:52.408Z,20.71
2019-06-10T20:55:24.781Z,20.66
2019-06-10T20:58:02.336Z,20.63
2019-06-10T21:00:36.862Z,20.59
2019-06-10T21:03:06.360Z,20.48
2019-06-10T21:05:35.229Z,20.35
2019-06-10T21:08:05.404Z,20.31
2019-06-10T21:10:36.098Z,20.25
2019-06-10T21:13:06.240Z,20.17
2019-06-10T21:15:36.057Z,20.10
2019-06-10T21:18:05.186Z,20.08
2019-06-10T21:20:33.762Z,20.10
2019-06-10T21:23:03.024Z,20.10
2019-06-10T21:25:32.617Z,20.07
2019-06-10T21:28:03.084Z,20.08
2019-06-10T21:30:41.444Z,20.08
2019-06-10T21:33:03.621Z,20.06
2019-06-10T21:35:34.185Z,20.08
2019-06-10T21:38:03.017Z,20.10
2019-06-10T21:40:33.031Z,20.19
2019-06-10T21:43:02.897Z,20.19
2019-06-10T21:45:32.669Z,20.18
2019-06-10T21:48:02.619Z,20.16
2019-06-10T21:50:33.277Z,20.15
2019-06-10T21:53:02.972Z,20.22
2019-06-10T21:55:33.139Z,20.36
2019-06-10T21:58:03.803Z,20.46
2019-06-10T22:00:51.633Z,20.45
2019-06-10T22:03:04.611Z,20.42
2019-06-10T22:05:33.214Z,20.44
2019-06-10T22:08:03.141Z,20.42
2019-06-10T22:10:33.594Z,20.46
2019-06-10T22:13:03.215Z,20.46
2019-06-10T22:15:33.394Z,20.46
2019-06-10T22:18:02.300Z,20.49
2019-06-10T22:20:32.429Z,20.48
2019-06-10T22:23:02.597Z,20.44
2019-06-10T22:25:32.829Z,20.37
2019-06-10T22:28:02.809Z,20.28
2019-06-10T22:30:32.156Z,20.17
2019-06-10T22:33:03.057Z,20.13
2019-06-10T22:35:30.894Z,20.15
2019-06-10T22:37:59.377Z,20.15
2019-06-10T22:40:27.769Z,20.15
2019-06-10T22:42:56.757Z,20.13
2019-06-10T22:45:25.345Z,20.12
2019-06-10T22:47:55.294Z,20.08
2019-06-10T22:50:24.076Z,20.08
2019-06-10T22:52:54.587Z,20.08
2019-06-10T22:55:22.619Z,20.15
2019-06-10T22:57:54.701Z,20.13
2019-06-10T23:00:22.227Z,20.17
2019-06-10T23:02:53.333Z,20.18
2019-06-10T23:05:23.172Z,20.17
2019-06-10T23:07:53.284Z,20.13
2019-06-10T23:10:22.936Z,20.05
2019-06-10T23:12:54.773Z,20.03
2019-06-10T23:15:23.551Z,20.11
2019-06-10T23:17:55.112Z,20.20
2019-06-10T23:20:22.121Z,20.26
2019-06-10T23:22:54.418Z,20.26
2019-06-10T23:25:22.096Z,20.19
2019-06-10T23:27:53.215Z,20.20
2019-06-10T23:30:22.373Z,20.16
2019-06-10T23:32:54.481Z,20.08
2019-06-10T23:35:23.128Z,19.99
2019-06-10T23:37:55.083Z,20.01
2019-06-10T23:40:23.391Z,20.02
2019-06-10T23:42:53.031Z,20.09
2019-06-10T23:45:22.426Z,20.13
2019-06-10T23:47:52.911Z,20.10
2019-06-10T23:50:22.603Z,20.08
2019-06-10T23:52:54.162Z,20.01
2019-06-10T23:55:22.751Z,19.94
2019-06-10T23:57:53.053Z,19.88
